createdAt,value
2018-08-04T00:01:49.851Z,100531.87
2018-08-04T00:04:17.680Z,100534.91
2018-08-04T00:06:45.505Z,100533.52
2018-08-04T00:09:13.403Z,100524.58
2018-08-04T00:11:41.768Z,100523.44
2018-08-04T00:14:09.816Z,100525.10
2018-08-04T00:16:37.764Z,100523.44
2018-08-04T00:19:06.282Z,100520.39
2018-08-04T00:21:34.256Z,100521.98
2018-08-04T00:24:02.034Z,100522.56
2018-08-04T00:26:31.257Z,100518.46
2018-08-04T00:29:00.268Z,100519.28
2018-08-04T00:31:29.575Z,100523.31
2018-08-04T00:33:57.464Z,100515.26
2018-08-04T00:36:25.646Z,100515.77
2018-08-04T00:38:53.987Z,100517.27
2018-08-04T00:41:21.886Z,100515.49
2018-08-04T00:43:50.211Z,100520.53
2018-08-04T00:46:18.220Z,100518.28
2018-08-04T00:48:46.321Z,100516.82
2018-08-04T00:51:14.229Z,100517.97
2018-08-04T00:53:42.241Z,100520.88
2018-08-04T00:56:10.455Z,100511.81
2018-08-04T00:58:38.574Z,100504.72
2018-08-04T01:01:06.963Z,100502.76
2018-08-04T01:03:35.108Z,100503.26
2018-08-04T01:06:02.988Z,100511.72
2018-08-04T01:08:30.787Z,100506.47
2018-08-04T01:10:58.700Z,100507.61
2018-08-04T01:13:26.464Z,100501.86
2018-08-04T01:15:54.267Z,100504.73
2018-08-04T01:18:22.120Z,100501.21
2018-08-04T01:20:49.895Z,100503.34
2018-08-04T01:23:17.854Z,100504.16
2018-08-04T01:25:45.821Z,100506.48
2018-08-04T01:28:13.622Z,100513.12
2018-08-04T01:30:41.455Z,100506.39
2018-08-04T01:33:09.243Z,100509.66
2018-08-04T01:35:37.960Z,100510.58
2018-08-04T01:38:05.752Z,100509.57
2018-08-04T01:40:33.540Z,100502.68
2018-08-04T01:43:01.352Z,100503.84
2018-08-04T01:45:29.143Z,100504.50
2018-08-04T01:47:57.016Z,100507.59
2018-08-04T01:50:24.891Z,100502.10
2018-08-04T01:52:52.791Z,100499.80
2018-08-04T01:55:20.596Z,100501.67
2018-08-04T01:57:48.350Z,100506.53
2018-08-04T02:00:16.195Z,100502.25
2018-08-04T02:02:44.008Z,100498.97
2018-08-04T02:05:11.748Z,100497.02
2018-08-04T02:07:39.523Z,100493.45
2018-08-04T02:10:07.335Z,100499.23
2018-08-04T02:12:35.200Z,100496.75
2018-08-04T02:15:03.039Z,100490.62
2018-08-04T02:17:30.805Z,100494.41
2018-08-04T02:19:58.536Z,100488.98
2018-08-04T02:22:26.399Z,100490.94
2018-08-04T02:24:54.160Z,100484.26
2018-08-04T02:27:22.072Z,100487.63
2018-08-04T02:29:50.181Z,100493.31
2018-08-04T02:32:17.943Z,100488.11
2018-08-04T02:34:45.689Z,100479.81
2018-08-04T02:37:13.555Z,100487.72
2018-08-04T02:39:41.429Z,100485.40
2018-08-04T02:42:09.279Z,100489.10
2018-08-04T02:44:37.123Z,100484.72
2018-08-04T02:47:04.963Z,100486.53
2018-08-04T02:49:32.764Z,100478.55
2018-08-04T02:52:00.578Z,100483.23
2018-08-04T02:54:28.360Z,100478.89
2018-08-04T02:56:56.139Z,100475.04
2018-08-04T02:59:23.984Z,100473.89
2018-08-04T03:01:51.804Z,100477.25
2018-08-04T03:04:19.656Z,100475.95
2018-08-04T03:06:47.499Z,100477.05
2018-08-04T03:09:15.326Z,100474.67
2018-08-04T03:11:43.168Z,100476.20
2018-08-04T03:14:11.041Z,100482.25
2018-08-04T03:16:38.847Z,100484.52
2018-08-04T03:19:06.802Z,100484.50
2018-08-04T03:21:34.648Z,100488.24
2018-08-04T03:24:02.469Z,100493.30
2018-08-04T03:26:30.219Z,100491.21
2018-08-04T03:28:58.100Z,100487.81
2018-08-04T03:31:25.892Z,100496.23
2018-08-04T03:33:53.659Z,100486.96
2018-08-04T03:36:21.432Z,100494.51
2018-08-04T03:38:49.215Z,100499.40
2018-08-04T03:41:17.110Z,100499.00
2018-08-04T03:43:44.937Z,100500.56
2018-08-04T03:46:12.836Z,100500.24
2018-08-04T03:48:40.584Z,100499.55
2018-08-04T03:51:08.396Z,100496.06
2018-08-04T03:53:36.256Z,100494.67
2018-08-04T03:56:04.126Z,100496.88
2018-08-04T03:58:31.935Z,100502.08
2018-08-04T04:00:59.877Z,100501.91
2018-08-04T04:03:27.739Z,100503.48
2018-08-04T04:05:55.493Z,100509.59
2018-08-04T04:08:23.316Z,100508.12
2018-08-04T04:10:51.155Z,100501.27
2018-08-04T04:13:18.986Z,100503.52
2018-08-04T04:15:46.776Z,100515.34
2018-08-04T04:18:14.635Z,100508.81
2018-08-04T04:20:42.419Z,100513.32
2018-08-04T04:23:10.184Z,100508.24
2018-08-04T04:25:37.971Z,100509.64
2018-08-04T04:28:05.799Z,100512.63
2018-08-04T04:30:33.627Z,100516.28
2018-08-04T04:33:01.389Z,100517.30
2018-08-04T04:35:29.212Z,100516.72
2018-08-04T04:37:57.012Z,100515.95
2018-08-04T04:40:24.841Z,100518.81
2018-08-04T04:42:52.639Z,100519.88
2018-08-04T04:45:20.486Z,100525.46
2018-08-04T04:47:48.310Z,100522.73
2018-08-04T04:50:16.229Z,100517.19
2018-08-04T04:52:44.107Z,100523.34
2018-08-04T04:55:11.965Z,100525.75
2018-08-04T04:57:39.758Z,100524.72
2018-08-04T05:00:07.639Z,100529.51
2018-08-04T05:02:35.360Z,100532.41
2018-08-04T05:05:03.577Z,100522.98
2018-08-04T05:07:31.404Z,100525.23
2018-08-04T05:09:59.170Z,100525.41
2018-08-04T05:12:27.092Z,100527.06
2018-08-04T05:14:54.895Z,100529.23
2018-08-04T05:17:22.675Z,100533.46
2018-08-04T05:19:50.455Z,100540.55
2018-08-04T05:22:18.230Z,100546.89
2018-08-04T05:24:46.025Z,100541.56
2018-08-04T05:27:13.929Z,100538.70
2018-08-04T05:29:41.754Z,100541.66
2018-08-04T05:32:09.574Z,100546.38
2018-08-04T05:34:37.435Z,100545.52
2018-08-04T05:37:05.759Z,100545.13
2018-08-04T05:39:33.587Z,100544.42
2018-08-04T05:42:01.312Z,100547.23
2018-08-04T05:44:29.630Z,100547.40
2018-08-04T05:46:57.496Z,100541.39
2018-08-04T05:49:25.377Z,100546.87
2018-08-04T05:51:53.211Z,100546.99
2018-08-04T05:54:21.064Z,100551.67
2018-08-04T05:56:48.812Z,100552.94
2018-08-04T05:59:16.632Z,100547.42
2018-08-04T06:01:44.485Z,100557.17
2018-08-04T06:04:12.283Z,100547.93
2018-08-04T06:06:40.073Z,100546.30
2018-08-04T06:09:09.201Z,100549.27
2018-08-04T06:11:37.078Z,100548.31
2018-08-04T06:14:05.048Z,100546.98
2018-08-04T06:16:32.976Z,100548.41
2018-08-04T06:19:01.476Z,100542.41
2018-08-04T06:21:29.467Z,100544.28
2018-08-04T06:23:57.351Z,100540.96
2018-08-04T06:26:25.147Z,100539.14
2018-08-04T06:28:53.055Z,100536.09
2018-08-04T06:31:20.896Z,100535.62
2018-08-04T06:33:48.751Z,100542.74
2018-08-04T06:36:16.485Z,100547.89
2018-08-04T06:38:44.319Z,100552.59
2018-08-04T06:41:12.111Z,100554.23
2018-08-04T06:43:39.993Z,100562.82
2018-08-04T06:46:07.851Z,100562.65
2018-08-04T06:48:35.911Z,100563.58
2018-08-04T06:51:03.755Z,100560.05
2018-08-04T06:53:31.623Z,100560.87
2018-08-04T06:55:59.533Z,100557.75
2018-08-04T06:58:27.427Z,100559.92
2018-08-04T07:00:55.241Z,100563.27
2018-08-04T07:03:23.052Z,100567.97
2018-08-04T07:05:50.818Z,100569.16
2018-08-04T07:08:18.647Z,100563.52
2018-08-04T07:10:46.407Z,100570.61
2018-08-04T07:13:14.259Z,100568.16
2018-08-04T07:15:42.106Z,100559.78
2018-08-04T07:18:10.065Z,100561.23
2018-08-04T07:20:37.947Z,100558.73
2018-08-04T07:23:05.731Z,100557.39
2018-08-04T07:25:33.553Z,100560.52
2018-08-04T07:28:01.337Z,100553.73
2018-08-04T07:30:29.183Z,100552.33
2018-08-04T07:33:02.263Z,100551.24
2018-08-04T07:35:30.983Z,100554.83
2018-08-04T07:37:58.751Z,100549.88
2018-08-04T07:40:26.631Z,100548.74
2018-08-04T07:42:54.449Z,100550.16
2018-08-04T07:45:22.249Z,100548.41
2018-08-04T07:47:50.169Z,100550.14
2018-08-04T07:50:18.518Z,100554.72
2018-08-04T07:52:46.300Z,100551.92
2018-08-04T07:55:14.065Z,100549.29
2018-08-04T07:57:41.867Z,100549.23
2018-08-04T08:00:09.919Z,100554.27
2018-08-04T08:02:37.777Z,100556.71
2018-08-04T08:05:05.962Z,100554.20
2018-08-04T08:07:33.833Z,100550.84
2018-08-04T08:10:01.681Z,100553.30
2018-08-04T08:12:30.085Z,100544.92
2018-08-04T08:14:58.359Z,100540.60
2018-08-04T08:17:26.140Z,100534.91
2018-08-04T08:19:54.077Z,100537.40
2018-08-04T08:22:35.720Z,100537.59
2018-08-04T08:25:04.051Z,100542.33
2018-08-04T08:27:32.040Z,100539.36
2018-08-04T08:29:59.919Z,100543.64
2018-08-04T08:32:27.742Z,100545.00
2018-08-04T08:34:55.587Z,100540.34
2018-08-04T08:37:23.346Z,100541.27
2018-08-04T08:39:51.190Z,100542.59
2018-08-04T08:42:18.945Z,100535.01
2018-08-04T08:44:46.782Z,100533.06
2018-08-04T08:47:14.838Z,100533.91
2018-08-04T08:49:42.590Z,100532.97
2018-08-04T08:52:10.435Z,100539.14
2018-08-04T08:54:38.345Z,100529.33
2018-08-04T08:57:06.140Z,100534.80
2018-08-04T08:59:34.049Z,100535.30
2018-08-04T09:02:01.857Z,100526.42
2018-08-04T09:04:29.693Z,100528.31
2018-08-04T09:06:57.488Z,100525.70
2018-08-04T09:09:25.255Z,100525.94
2018-08-04T09:11:53.080Z,100526.95
2018-08-04T09:14:20.885Z,100522.71
2018-08-04T09:16:48.784Z,100523.94
2018-08-04T09:19:16.636Z,100523.52
2018-08-04T09:21:44.491Z,100524.34
2018-08-04T09:24:12.340Z,100521.53
2018-08-04T09:26:40.383Z,100520.33
2018-08-04T09:29:08.158Z,100511.17
2018-08-04T09:31:36.328Z,100510.78
2018-08-04T09:34:04.176Z,100510.38
2018-08-04T09:36:31.992Z,100504.27
2018-08-04T09:39:00.469Z,100508.14
2018-08-04T09:41:28.244Z,100499.16
2018-08-04T09:43:56.047Z,100497.72
2018-08-04T09:46:23.940Z,100497.74
2018-08-04T09:48:51.846Z,100491.39
2018-08-04T09:51:19.647Z,100489.33
2018-08-04T09:53:47.492Z,100489.27
2018-08-04T09:56:15.323Z,100493.12
2018-08-04T09:58:43.080Z,100497.52
2018-08-04T10:01:16.967Z,100490.66
2018-08-04T10:03:44.933Z,100489.80
2018-08-04T10:06:12.808Z,100491.83
2018-08-04T10:08:40.623Z,100484.92
2018-08-04T10:11:08.553Z,100480.91
2018-08-04T10:13:36.428Z,100487.73
2018-08-04T10:16:04.995Z,100486.88
2018-08-04T10:18:32.855Z,100491.19
2018-08-04T10:21:00.651Z,100492.12
2018-08-04T10:23:28.468Z,100479.75
2018-08-04T10:25:56.281Z,100480.63
2018-08-04T10:28:23.991Z,100483.65
2018-08-04T10:30:51.759Z,100484.70
2018-08-04T10:33:19.536Z,100479.48
2018-08-04T10:35:47.409Z,100480.37
2018-08-04T10:38:15.200Z,100477.37
2018-08-04T10:40:43.011Z,100471.84
2018-08-04T10:43:10.801Z,100469.48
2018-08-04T10:45:38.623Z,100459.64
2018-08-04T10:48:06.423Z,100470.67
2018-08-04T10:50:34.248Z,100471.44
2018-08-04T10:53:02.060Z,100466.25
2018-08-04T10:55:29.895Z,100467.23
2018-08-04T10:57:57.803Z,100466.47
2018-08-04T11:00:25.580Z,100465.03
2018-08-04T11:02:53.375Z,100469.71
2018-08-04T11:05:21.186Z,100463.19
2018-08-04T11:07:48.948Z,100463.63
2018-08-04T11:10:16.751Z,100470.61
2018-08-04T11:12:44.563Z,100466.92
2018-08-04T11:15:12.356Z,100459.23
2018-08-04T11:17:40.229Z,100463.10
2018-08-04T11:20:08.083Z,100457.38
2018-08-04T11:22:35.914Z,100461.85
2018-08-04T11:25:04.035Z,100457.98
2018-08-04T11:27:31.888Z,100450.58
2018-08-04T11:29:59.702Z,100451.11
2018-08-04T11:32:27.558Z,100460.52
2018-08-04T11:34:55.379Z,100452.08
2018-08-04T11:37:23.190Z,100452.27
2018-08-04T11:39:51.043Z,100460.48
2018-08-04T11:42:18.820Z,100461.98
2018-08-04T11:44:46.603Z,100449.89
2018-08-04T11:47:14.439Z,100452.70
2018-08-04T11:49:42.259Z,100445.81
2018-08-04T11:52:10.128Z,100448.01
2018-08-04T11:54:37.859Z,100449.77
2018-08-04T11:57:05.759Z,100458.00
2018-08-04T11:59:33.638Z,100453.36
2018-08-04T12:02:01.558Z,100444.09
2018-08-04T12:04:29.336Z,100446.84
2018-08-04T12:06:57.179Z,100444.41
2018-08-04T12:09:24.963Z,100436.08
2018-08-04T12:11:52.725Z,100438.70
2018-08-04T12:14:20.541Z,100440.39
2018-08-04T12:16:48.419Z,100438.30
2018-08-04T12:19:16.198Z,100432.87
2018-08-04T12:21:43.987Z,100432.06
2018-08-04T12:24:11.839Z,100426.22
2018-08-04T12:26:39.615Z,100425.41
2018-08-04T12:29:07.396Z,100427.66
2018-08-04T12:31:35.221Z,100428.72
2018-08-04T12:34:02.931Z,100428.75
2018-08-04T12:36:30.771Z,100432.01
2018-08-04T12:38:58.603Z,100429.70
2018-08-04T12:41:26.507Z,100433.03
2018-08-04T12:43:54.319Z,100436.64
2018-08-04T12:46:22.171Z,100429.42
2018-08-04T12:48:49.950Z,100427.61
2018-08-04T12:51:17.719Z,100431.55
2018-08-04T12:53:45.531Z,100429.69
2018-08-04T12:56:13.347Z,100421.13
2018-08-04T12:58:41.195Z,100417.34
2018-08-04T13:01:09.047Z,100405.95
2018-08-04T13:03:36.914Z,100405.77
2018-08-04T13:06:04.915Z,100405.27
2018-08-04T13:08:32.715Z,100398.94
2018-08-04T13:11:00.451Z,100399.77
2018-08-04T13:13:28.236Z,100407.66
2018-08-04T13:15:56.131Z,100390.36
2018-08-04T13:18:23.974Z,100377.36
2018-08-04T13:20:52.027Z,100376.71
2018-08-04T13:23:19.770Z,100380.34
2018-08-04T13:25:47.614Z,100387.67
2018-08-04T13:28:15.411Z,100377.42
2018-08-04T13:30:43.267Z,100371.26
2018-08-04T13:33:11.034Z,100365.55
2018-08-04T13:35:38.807Z,100367.62
2018-08-04T13:38:06.665Z,100366.43
2018-08-04T13:40:34.519Z,100370.81
2018-08-04T13:43:02.407Z,100377.35
2018-08-04T13:45:30.231Z,100384.72
2018-08-04T13:47:58.057Z,100407.52
2018-08-04T13:50:25.900Z,100416.30
2018-08-04T13:52:53.739Z,100408.29
2018-08-04T13:55:22.121Z,100412.20
2018-08-04T13:57:49.967Z,100406.92
2018-08-04T14:00:17.690Z,100408.86
2018-08-04T14:02:45.544Z,100392.73
2018-08-04T14:05:13.392Z,100404.36
2018-08-04T14:07:41.156Z,100412.20
2018-08-04T14:10:12.605Z,100419.48
2018-08-04T14:12:49.033Z,100412.72
2018-08-04T14:15:24.487Z,100404.39
2018-08-04T14:17:52.385Z,100410.65
2018-08-04T14:20:26.369Z,100407.77
2018-08-04T14:22:54.236Z,100414.92
2018-08-04T14:25:22.088Z,100421.09
2018-08-04T14:27:51.746Z,100418.10
2018-08-04T14:30:20.256Z,100417.38
2018-08-04T14:32:53.026Z,100412.33
2018-08-04T14:35:28.580Z,100417.62
2018-08-04T14:37:56.848Z,100419.29
2018-08-04T14:40:24.599Z,100409.24
2018-08-04T14:42:52.396Z,100413.00
2018-08-04T14:45:20.476Z,100405.02
2018-08-04T14:47:48.778Z,100406.19
2018-08-04T14:50:16.683Z,100409.51
2018-08-04T14:52:44.462Z,100406.56
2018-08-04T14:55:12.387Z,100399.95
2018-08-04T14:57:40.154Z,100399.98
2018-08-04T15:00:08.099Z,100394.31
2018-08-04T15:02:35.862Z,100391.97
2018-08-04T15:05:05.487Z,100390.80
2018-08-04T15:07:33.268Z,100392.83
2018-08-04T15:10:01.070Z,100379.30
2018-08-04T15:12:28.936Z,100379.22
2018-08-04T15:14:56.687Z,100383.20
2018-08-04T15:17:25.271Z,100375.83
2018-08-04T15:19:53.079Z,100371.64
2018-08-04T15:22:20.996Z,100367.88
2018-08-04T15:24:48.948Z,100368.98
2018-08-04T15:27:19.951Z,100364.78
2018-08-04T15:29:47.747Z,100359.12
2018-08-04T15:32:15.756Z,100359.93
2018-08-04T15:34:43.591Z,100358.92
2018-08-04T15:37:11.315Z,100353.61
2018-08-04T15:39:39.166Z,100357.05
2018-08-04T15:42:07.100Z,100355.08
2018-08-04T15:44:35.187Z,100347.14
2018-08-04T15:47:03.474Z,100349.81
2018-08-04T15:49:31.328Z,100345.95
2018-08-04T15:51:59.291Z,100345.36
2018-08-04T15:54:27.104Z,100343.73
2018-08-04T15:56:54.915Z,100347.59
2018-08-04T15:59:23.152Z,100338.31
2018-08-04T16:01:51.011Z,100348.66
2018-08-04T16:04:18.840Z,100340.53
2018-08-04T16:06:46.599Z,100336.68
2018-08-04T16:09:14.380Z,100337.69
2018-08-04T16:11:42.216Z,100334.87
2018-08-04T16:14:10.347Z,100341.33
2018-08-04T16:16:39.020Z,100340.12
2018-08-04T16:19:07.287Z,100338.30
2018-08-04T16:21:35.135Z,100336.47
2018-08-04T16:24:03.000Z,100337.67
2018-08-04T16:26:30.835Z,100337.70
2018-08-04T16:29:01.324Z,100337.89
2018-08-04T16:31:29.141Z,100333.61
2018-08-04T16:33:57.235Z,100330.78
2018-08-04T16:36:28.617Z,100335.06
2018-08-04T16:38:56.417Z,100334.23
2018-08-04T16:41:24.277Z,100335.23
2018-08-04T16:43:52.052Z,100340.31
2018-08-04T16:46:19.911Z,100331.16
2018-08-04T16:48:47.715Z,100337.86
2018-08-04T16:51:15.486Z,100334.02
2018-08-04T16:53:43.245Z,100337.08
2018-08-04T16:56:11.103Z,100341.12
2018-08-04T16:58:39.015Z,100341.73
2018-08-04T17:01:06.898Z,100345.61
2018-08-04T17:03:34.667Z,100346.03
2018-08-04T17:06:02.531Z,100349.69
2018-08-04T17:08:30.292Z,100349.08
2018-08-04T17:10:58.115Z,100350.27
2018-08-04T17:13:25.923Z,100352.70
2018-08-04T17:15:53.780Z,100350.66
2018-08-04T17:18:21.593Z,100340.09
2018-08-04T17:20:49.399Z,100358.50
2018-08-04T17:23:17.175Z,100353.84
2018-08-04T17:25:45.006Z,100354.83
2018-08-04T17:28:12.762Z,100355.84
2018-08-04T17:30:40.664Z,100357.41
2018-08-04T17:33:08.511Z,100350.50
2018-08-04T17:35:36.300Z,100353.13
2018-08-04T17:38:05.148Z,100353.94
2018-08-04T17:40:32.943Z,100360.00
2018-08-04T17:43:00.966Z,100365.68
2018-08-04T17:45:28.775Z,100373.80
2018-08-04T17:47:56.543Z,100367.25
2018-08-04T17:50:24.389Z,100371.09
2018-08-04T17:52:52.175Z,100367.83
2018-08-04T17:55:19.940Z,100373.67
2018-08-04T17:57:47.783Z,100377.92
2018-08-04T18:00:15.655Z,100379.27
2018-08-04T18:02:43.493Z,100380.25
2018-08-04T18:05:11.303Z,100377.33
2018-08-04T18:07:39.274Z,100383.73
2018-08-04T18:10:07.223Z,100385.30
2018-08-04T18:12:34.977Z,100389.95
2018-08-04T18:15:03.610Z,100384.22
2018-08-04T18:17:31.399Z,100386.78
2018-08-04T18:19:59.223Z,100387.34
2018-08-04T18:22:27.160Z,100389.55
2018-08-04T18:24:54.980Z,100395.31
2018-08-04T18:27:22.768Z,100397.83
2018-08-04T18:29:50.744Z,100401.85
2018-08-04T18:32:18.423Z,100395.93
2018-08-04T18:34:46.211Z,100401.65
2018-08-04T18:37:14.037Z,100405.56
2018-08-04T18:39:41.879Z,100399.35
2018-08-04T18:42:09.730Z,100397.66
2018-08-04T18:44:37.666Z,100406.13
2018-08-04T18:47:05.416Z,100404.99
2018-08-04T18:49:33.244Z,100406.03
2018-08-04T18:52:01.161Z,100417.41
2018-08-04T18:54:29.317Z,100419.19
2018-08-04T18:56:57.164Z,100421.39
2018-08-04T18:59:24.947Z,100424.66
2018-08-04T19:01:52.800Z,100421.14
2018-08-04T19:04:21.511Z,100422.84
2018-08-04T19:06:49.311Z,100433.25
2018-08-04T19:09:17.160Z,100430.42
2018-08-04T19:11:44.935Z,100435.16
2018-08-04T19:14:12.758Z,100438.34
2018-08-04T19:16:40.645Z,100445.44
2018-08-04T19:19:08.399Z,100442.19
2018-08-04T19:21:36.198Z,100447.81
2018-08-04T19:24:04.040Z,100449.03
2018-08-04T19:26:34.117Z,100453.32
2018-08-04T19:29:01.933Z,100450.42
2018-08-04T19:31:29.878Z,100453.84
2018-08-04T19:33:57.788Z,100458.69
2018-08-04T19:36:25.740Z,100452.44
2018-08-04T19:38:55.118Z,100457.91
2018-08-04T19:41:24.232Z,100465.78
2018-08-04T19:43:52.625Z,100474.48
2018-08-04T19:46:20.501Z,100479.09
2018-08-04T19:48:49.367Z,100480.80
2018-08-04T19:51:17.256Z,100480.02
2018-08-04T19:53:46.771Z,100485.59
2018-08-04T19:56:14.587Z,100485.44
2018-08-04T19:58:43.199Z,100490.39
2018-08-04T20:01:12.366Z,100491.36
2018-08-04T20:03:40.280Z,100497.44
2018-08-04T20:06:09.033Z,100501.41
2018-08-04T20:08:37.565Z,100502.23
2018-08-04T20:11:05.363Z,100506.83
2018-08-04T20:13:33.173Z,100512.23
2018-08-04T20:16:00.990Z,100508.75
2018-08-04T20:18:29.004Z,100515.03
2018-08-04T20:20:56.923Z,100516.21
2018-08-04T20:23:24.811Z,100518.03
2018-08-04T20:25:52.892Z,100515.70
2018-08-04T20:28:20.935Z,100523.12
2018-08-04T20:30:48.923Z,100525.02
2018-08-04T20:33:17.046Z,100526.94
2018-08-04T20:35:45.300Z,100524.42
2018-08-04T20:38:13.123Z,100528.19
2018-08-04T20:40:40.920Z,100529.77
2018-08-04T20:43:08.716Z,100533.42
2018-08-04T20:45:36.498Z,100538.46
2018-08-04T20:48:05.770Z,100541.73
2018-08-04T20:50:33.583Z,100537.86
2018-08-04T20:53:01.629Z,100544.16
2018-08-04T20:55:29.603Z,100546.38
2018-08-04T20:57:57.442Z,100548.62
2018-08-04T21:00:25.267Z,100540.45
2018-08-04T21:02:53.111Z,100543.98
2018-08-04T21:05:21.163Z,100540.34
2018-08-04T21:07:49.156Z,100545.76
2018-08-04T21:10:17.008Z,100545.31
2018-08-04T21:12:44.854Z,100543.10
2018-08-04T21:15:12.687Z,100544.75
2018-08-04T21:17:40.468Z,100548.97
2018-08-04T21:20:08.295Z,100556.33
2018-08-04T21:22:37.274Z,100559.05
2018-08-04T21:25:05.164Z,100559.17
2018-08-04T21:27:32.972Z,100557.19
2018-08-04T21:30:00.915Z,100556.58
2018-08-04T21:32:28.714Z,100555.06
2018-08-04T21:34:56.692Z,100562.41
2018-08-04T21:37:24.500Z,100561.70
2018-08-04T21:39:52.343Z,100573.77
2018-08-04T21:42:20.141Z,100576.63
2018-08-04T21:44:47.984Z,100573.56
2018-08-04T21:47:17.117Z,100580.34
2018-08-04T21:49:44.940Z,100577.62
2018-08-04T21:52:12.795Z,100581.73
2018-08-04T21:54:40.635Z,100581.57
2018-08-04T21:57:08.453Z,100589.58
2018-08-04T21:59:36.311Z,100586.30
2018-08-04T22:02:04.210Z,100586.30
2018-08-04T22:04:32.054Z,100582.36
2018-08-04T22:08:15.111Z,100585.87
2018-08-04T22:10:42.952Z,100599.03
2018-08-04T22:13:10.812Z,100594.36
2018-08-04T22:15:38.696Z,100598.69
2018-08-04T22:18:06.588Z,100598.12
2018-08-04T22:20:34.347Z,100592.47
2018-08-04T22:23:02.146Z,100593.53
2018-08-04T22:25:30.339Z,100594.61
2018-08-04T22:27:58.590Z,100599.72
2018-08-04T22:30:26.607Z,100595.78
2018-08-04T22:32:54.416Z,100610.94
2018-08-04T22:35:22.748Z,100609.02
2018-08-04T22:37:51.152Z,100601.51
2018-08-04T22:40:19.902Z,100616.05
2018-08-04T22:42:47.794Z,100614.31
2018-08-04T22:46:06.563Z,100611.48
2018-08-04T22:48:34.583Z,100609.77
2018-08-04T22:51:02.541Z,100615.63
2018-08-04T22:53:30.636Z,100620.88
2018-08-04T22:55:58.439Z,100616.67
2018-08-04T22:58:26.238Z,100624.64
2018-08-04T23:00:54.055Z,100619.52
2018-08-04T23:03:21.835Z,100617.39
2018-08-04T23:05:49.589Z,100616.74
2018-08-04T23:08:17.388Z,100617.56
2018-08-04T23:10:45.244Z,100614.49
2018-08-04T23:13:13.621Z,100615.75
2018-08-04T23:15:41.500Z,100619.92
2018-08-04T23:18:09.680Z,100627.53
2018-08-04T23:20:37.634Z,100619.30
2018-08-04T23:23:06.263Z,100617.75
2018-08-04T23:25:34.120Z,100619.72
2018-08-04T23:28:01.888Z,100617.76
2018-08-04T23:30:29.673Z,100619.00
2018-08-04T23:32:57.480Z,100621.63
2018-08-04T23:35:26.083Z,100626.75
2018-08-04T23:37:54.012Z,100624.59
2018-08-04T23:40:22.266Z,100621.89
2018-08-04T23:42:50.027Z,100625.66
2018-08-04T23:45:17.900Z,100626.00
2018-08-04T23:47:45.709Z,100624.75
2018-08-04T23:50:13.622Z,100625.66
2018-08-04T23:52:41.552Z,100624.02
2018-08-04T23:55:09.336Z,100626.55
2018-08-04T23:57:37.191Z,100625.45
